sensor_id;sensor_type;location;lat;lon;timestamp;P1;durP1;ratioP1;P2;durP2;ratioP2
19664;SDS011;9980;51.020;7.772;2022-10-31T00:02:02;5.67;;;4.20;;
19664;SDS011;9980;51.020;7.772;2022-10-31T00:04:49;7.60;;;3.80;;
19664;SDS011;9980;51.020;7.772;2022-10-31T00:07:29;7.03;;;5.43;;
19664;SDS011;9980;51.020;7.772;2022-10-31T00:10:23;10.53;;;4.27;;
19664;SDS011;9980;51.020;7.772;2022-10-31T00:12:56;8.60;;;4.60;;
19664;SDS011;9980;51.020;7.772;2022-10-31T00:15:50;7.43;;;5.10;;
19664;SDS011;9980;51.020;7.772;2022-10-31T00:18:23;11.13;;;5.57;;
19664;SDS011;9980;51.020;7.772;2022-10-31T00:21:17;4.33;;;2.97;;
19664;SDS011;9980;51.020;7.772;2022-10-31T00:23:51;7.10;;;4.87;;
19664;SDS011;9980;51.020;7.772;2022-10-31T00:26:46;8.00;;;3.70;;
19664;SDS011;9980;51.020;7.772;2022-10-31T00:29:20;4.47;;;4.07;;
19664;SDS011;9980;51.020;7.772;2022-10-31T00:32:15;8.77;;;4.83;;
19664;SDS011;9980;51.020;7.772;2022-10-31T00:34:48;4.87;;;4.20;;
19664;SDS011;9980;51.020;7.772;2022-10-31T00:37:42;9.27;;;5.13;;
19664;SDS011;9980;51.020;7.772;2022-10-31T00:40:22;4.57;;;4.10;;
19664;SDS011;9980;51.020;7.772;2022-10-31T00:43:09;7.60;;;4.27;;
19664;SDS011;9980;51.020;7.772;2022-10-31T00:45:49;8.30;;;5.47;;
19664;SDS011;9980;51.020;7.772;2022-10-31T00:48:36;7.40;;;4.40;;
19664;SDS011;9980;51.020;7.772;2022-10-31T00:51:16;10.93;;;4.57;;
19664;SDS011;9980;51.020;7.772;2022-10-31T00:54:04;7.30;;;4.33;;
19664;SDS011;9980;51.020;7.772;2022-10-31T00:56:44;7.03;;;4.33;;
19664;SDS011;9980;51.020;7.772;2022-10-31T00:59:31;6.63;;;4.23;;
19664;SDS011;9980;51.020;7.772;2022-10-31T01:02:11;6.13;;;3.90;;
19664;SDS011;9980;51.020;7.772;2022-10-31T01:04:58;7.83;;;4.07;;
19664;SDS011;9980;51.020;7.772;2022-10-31T01:07:38;8.67;;;4.97;;
19664;SDS011;9980;51.020;7.772;2022-10-31T01:10:34;4.17;;;3.77;;
19664;SDS011;9980;51.020;7.772;2022-10-31T01:13:07;8.63;;;3.40;;
19664;SDS011;9980;51.020;7.772;2022-10-31T01:16:05;5.87;;;4.93;;
19664;SDS011;9980;51.020;7.772;2022-10-31T01:18:42;8.87;;;5.27;;
19664;SDS011;9980;51.020;7.772;2022-10-31T01:21:36;11.57;;;4.60;;
19664;SDS011;9980;51.020;7.772;2022-10-31T01:24:09;7.20;;;4.33;;
19664;SDS011;9980;51.020;7.772;2022-10-31T01:27:03;8.30;;;5.73;;
19664;SDS011;9980;51.020;7.772;2022-10-31T01:29:37;7.30;;;4.10;;
19664;SDS011;9980;51.020;7.772;2022-10-31T01:32:31;8.07;;;5.63;;
19664;SDS011;9980;51.020;7.772;2022-10-31T01:35:05;4.10;;;3.80;;
19664;SDS011;9980;51.020;7.772;2022-10-31T01:38:00;10.03;;;5.53;;
19664;SDS011;9980;51.020;7.772;2022-10-31T01:40:40;4.17;;;3.77;;
19664;SDS011;9980;51.020;7.772;2022-10-31T01:46:53;8.20;;;5.17;;
19664;SDS011;9980;51.020;7.772;2022-10-31T01:49:54;9.00;;;4.27;;
19664;SDS011;9980;51.020;7.772;2022-10-31T01:52:44;6.87;;;4.10;;
19664;SDS011;9980;51.020;7.772;2022-10-31T01:55:44;5.87;;;4.13;;
19664;SDS011;9980;51.020;7.772;2022-10-31T01:58:23;7.30;;;5.00;;
19664;SDS011;9980;51.020;7.772;2022-10-31T02:01:23;10.87;;;5.77;;
19664;SDS011;9980;51.020;7.772;2022-10-31T02:03:56;6.07;;;4.23;;
19664;SDS011;9980;51.020;7.772;2022-10-31T02:06:57;7.43;;;4.73;;
19664;SDS011;9980;51.020;7.772;2022-10-31T02:09:39;5.37;;;3.87;;
19664;SDS011;9980;51.020;7.772;2022-10-31T02:12:35;4.67;;;3.83;;
19664;SDS011;9980;51.020;7.772;2022-10-31T02:15:18;12.10;;;5.47;;
19664;SDS011;9980;51.020;7.772;2022-10-31T02:18:05;5.07;;;3.90;;
19664;SDS011;9980;51.020;7.772;2022-10-31T02:24:00;11.43;;;4.27;;
19664;SDS011;9980;51.020;7.772;2022-10-31T02:30:41;7.23;;;4.90;;
19664;SDS011;9980;51.020;7.772;2022-10-31T02:33:25;5.13;;;4.00;;
19664;SDS011;9980;51.020;7.772;2022-10-31T02:36:42;7.17;;;4.13;;
19664;SDS011;9980;51.020;7.772;2022-10-31T02:43:53;8.27;;;4.83;;
19664;SDS011;9980;51.020;7.772;2022-10-31T02:47:06;8.37;;;5.07;;
19664;SDS011;9980;51.020;7.772;2022-10-31T02:53:02;6.97;;;3.83;;
19664;SDS011;9980;51.020;7.772;2022-10-31T02:55:59;9.43;;;4.40;;
19664;SDS011;9980;51.020;7.772;2022-10-31T02:58:54;3.87;;;3.57;;
19664;SDS011;9980;51.020;7.772;2022-10-31T03:08:29;6.43;;;3.57;;
19664;SDS011;9980;51.020;7.772;2022-10-31T03:11:14;6.63;;;4.63;;
19664;SDS011;9980;51.020;7.772;2022-10-31T03:14:27;4.80;;;3.93;;
19664;SDS011;9980;51.020;7.772;2022-10-31T03:17:50;7.33;;;5.40;;
19664;SDS011;9980;51.020;7.772;2022-10-31T03:21:20;5.00;;;4.47;;
19664;SDS011;9980;51.020;7.772;2022-10-31T03:24:05;5.53;;;3.90;;
19664;SDS011;9980;51.020;7.772;2022-10-31T03:27:04;7.80;;;4.30;;
19664;SDS011;9980;51.020;7.772;2022-10-31T03:29:43;8.47;;;5.33;;
19664;SDS011;9980;51.020;7.772;2022-10-31T03:32:52;6.97;;;5.13;;
19664;SDS011;9980;51.020;7.772;2022-10-31T03:35:30;7.17;;;5.73;;
19664;SDS011;9980;51.020;7.772;2022-10-31T03:38:27;9.67;;;4.37;;
19664;SDS011;9980;51.020;7.772;2022-10-31T03:41:16;9.00;;;5.47;;
19664;SDS011;9980;51.020;7.772;2022-10-31T03:44:19;5.27;;;4.53;;
19664;SDS011;9980;51.020;7.772;2022-10-31T03:47:03;10.73;;;6.07;;
19664;SDS011;9980;51.020;7.772;2022-10-31T03:49:53;8.07;;;4.93;;
19664;SDS011;9980;51.020;7.772;2022-10-31T03:52:45;7.57;;;4.40;;
19664;SDS011;9980;51.020;7.772;2022-10-31T03:55:52;6.97;;;4.13;;
19664;SDS011;9980;51.020;7.772;2022-10-31T03:59:01;12.73;;;5.60;;
19664;SDS011;9980;51.020;7.772;2022-10-31T04:02:13;12.77;;;5.60;;
19664;SDS011;9980;51.020;7.772;2022-10-31T04:04:53;9.03;;;5.67;;
19664;SDS011;9980;51.020;7.772;2022-10-31T04:07:50;6.10;;;4.50;;
19664;SDS011;9980;51.020;7.772;2022-10-31T04:10:35;8.17;;;4.90;;
19664;SDS011;9980;51.020;7.772;2022-10-31T04:13:29;8.20;;;5.00;;
19664;SDS011;9980;51.020;7.772;2022-10-31T04:16:19;10.27;;;5.27;;
19664;SDS011;9980;51.020;7.772;2022-10-31T04:19:09;4.97;;;4.57;;
19664;SDS011;9980;51.020;7.772;2022-10-31T04:21:51;4.77;;;4.37;;
19664;SDS011;9980;51.020;7.772;2022-10-31T04:24:38;11.67;;;5.73;;
19664;SDS011;9980;51.020;7.772;2022-10-31T04:27:20;5.43;;;4.00;;
19664;SDS011;9980;51.020;7.772;2022-10-31T04:30:15;5.20;;;4.07;;
19664;SDS011;9980;51.020;7.772;2022-10-31T04:32:48;8.83;;;5.63;;
19664;SDS011;9980;51.020;7.772;2022-10-31T04:35:42;5.47;;;5.03;;
19664;SDS011;9980;51.020;7.772;2022-10-31T04:38:15;7.10;;;5.67;;
19664;SDS011;9980;51.020;7.772;2022-10-31T04:41:15;6.13;;;5.53;;
19664;SDS011;9980;51.020;7.772;2022-10-31T04:43:57;5.40;;;4.13;;
19664;SDS011;9980;51.020;7.772;2022-10-31T04:46:55;9.00;;;5.27;;
19664;SDS011;9980;51.020;7.772;2022-10-31T04:49:29;7.00;;;5.57;;
19664;SDS011;9980;51.020;7.772;2022-10-31T04:52:24;9.17;;;4.93;;
19664;SDS011;9980;51.020;7.772;2022-10-31T04:55:04;5.67;;;5.17;;
19664;SDS011;9980;51.020;7.772;2022-10-31T04:58:20;5.07;;;4.53;;
19664;SDS011;9980;51.020;7.772;2022-10-31T05:01:02;5.37;;;4.53;;
19664;SDS011;9980;51.020;7.772;2022-10-31T05:03:50;8.93;;;4.90;;
19664;SDS011;9980;51.020;7.772;2022-10-31T05:06:31;5.23;;;4.73;;
19664;SDS011;9980;51.020;7.772;2022-10-31T05:09:18;9.47;;;5.40;;
19664;SDS011;9980;51.020;7.772;2022-10-31T05:11:58;11.03;;;4.20;;
19664;SDS011;9980;51.020;7.772;2022-10-31T05:15:27;11.20;;;5.27;;
19664;SDS011;9980;51.020;7.772;2022-10-31T05:18:19;5.87;;;4.30;;
19664;SDS011;9980;51.020;7.772;2022-10-31T05:21:17;5.30;;;3.90;;
19664;SDS011;9980;51.020;7.772;2022-10-31T05:23:53;7.93;;;4.50;;
19664;SDS011;9980;51.020;7.772;2022-10-31T05:26:52;11.30;;;6.00;;
19664;SDS011;9980;51.020;7.772;2022-10-31T05:29:25;7.87;;;4.50;;
19664;SDS011;9980;51.020;7.772;2022-10-31T05:32:20;7.27;;;4.17;;
19664;SDS011;9980;51.020;7.772;2022-10-31T05:35:26;7.97;;;4.90;;
19664;SDS011;9980;51.020;7.772;2022-10-31T05:38:43;5.07;;;4.57;;
19664;SDS011;9980;51.020;7.772;2022-10-31T05:41:26;13.13;;;5.10;;
19664;SDS011;9980;51.020;7.772;2022-10-31T05:44:21;6.97;;;4.20;;
19664;SDS011;9980;51.020;7.772;2022-10-31T05:47:07;8.27;;;5.50;;
19664;SDS011;9980;51.020;7.772;2022-10-31T05:50:01;9.80;;;5.83;;
19664;SDS011;9980;51.020;7.772;2022-10-31T05:52:57;10.20;;;5.43;;
19664;SDS011;9980;51.020;7.772;2022-10-31T05:55:54;9.93;;;5.57;;
19664;SDS011;9980;51.020;7.772;2022-10-31T05:58:28;8.77;;;5.67;;
19664;SDS011;9980;51.020;7.772;2022-10-31T06:01:22;7.30;;;5.17;;
19664;SDS011;9980;51.020;7.772;2022-10-31T06:03:59;10.00;;;5.27;;
19664;SDS011;9980;51.020;7.772;2022-10-31T06:06:53;6.07;;;4.27;;
19664;SDS011;9980;51.020;7.772;2022-10-31T06:09:33;10.93;;;5.80;;
19664;SDS011;9980;51.020;7.772;2022-10-31T06:12:21;10.27;;;6.03;;
19664;SDS011;9980;51.020;7.772;2022-10-31T06:15:28;5.90;;;4.63;;
19664;SDS011;9980;51.020;7.772;2022-10-31T06:18:17;8.10;;;4.70;;
19664;SDS011;9980;51.020;7.772;2022-10-31T06:20:58;11.30;;;5.80;;
19664;SDS011;9980;51.020;7.772;2022-10-31T06:23:45;5.03;;;4.63;;
19664;SDS011;9980;51.020;7.772;2022-10-31T06:26:51;6.70;;;4.33;;
19664;SDS011;9980;51.020;7.772;2022-10-31T06:29:47;5.23;;;4.60;;
19664;SDS011;9980;51.020;7.772;2022-10-31T06:32:29;8.10;;;6.10;;
19664;SDS011;9980;51.020;7.772;2022-10-31T06:35:25;6.90;;;4.57;;
19664;SDS011;9980;51.020;7.772;2022-10-31T06:37:58;6.00;;;4.30;;
19664;SDS011;9980;51.020;7.772;2022-10-31T06:40:53;4.73;;;4.10;;
19664;SDS011;9980;51.020;7.772;2022-10-31T06:43:32;7.53;;;6.03;;
19664;SDS011;9980;51.020;7.772;2022-10-31T06:46:49;12.13;;;5.63;;
19664;SDS011;9980;51.020;7.772;2022-10-31T06:49:40;7.23;;;5.40;;
19664;SDS011;9980;51.020;7.772;2022-10-31T06:52:34;7.37;;;5.10;;
19664;SDS011;9980;51.020;7.772;2022-10-31T06:55:14;12.57;;;6.37;;
19664;SDS011;9980;51.020;7.772;2022-10-31T06:58:02;11.87;;;6.53;;
19664;SDS011;9980;51.020;7.772;2022-10-31T07:00:44;15.33;;;5.80;;
19664;SDS011;9980;51.020;7.772;2022-10-31T07:03:31;6.37;;;4.90;;
19664;SDS011;9980;51.020;7.772;2022-10-31T07:06:11;5.53;;;5.03;;
19664;SDS011;9980;51.020;7.772;2022-10-31T07:08:59;7.13;;;5.17;;
19664;SDS011;9980;51.020;7.772;2022-10-31T07:11:39;8.10;;;6.07;;
19664;SDS011;9980;51.020;7.772;2022-10-31T07:14:26;15.00;;;7.30;;
19664;SDS011;9980;51.020;7.772;2022-10-31T07:17:06;7.50;;;5.37;;
19664;SDS011;9980;51.020;7.772;2022-10-31T07:20:05;11.00;;;6.63;;
19664;SDS011;9980;51.020;7.772;2022-10-31T07:22:40;8.97;;;4.80;;
19664;SDS011;9980;51.020;7.772;2022-10-31T07:25:36;13.33;;;7.63;;
19664;SDS011;9980;51.020;7.772;2022-10-31T07:28:20;11.43;;;6.20;;
19664;SDS011;9980;51.020;7.772;2022-10-31T07:31:14;16.13;;;6.60;;
19664;SDS011;9980;51.020;7.772;2022-10-31T07:33:48;9.70;;;6.50;;
19664;SDS011;9980;51.020;7.772;2022-10-31T07:37:01;16.37;;;8.20;;
19664;SDS011;9980;51.020;7.772;2022-10-31T07:39:41;8.17;;;6.10;;
19664;SDS011;9980;51.020;7.772;2022-10-31T07:42:42;7.13;;;5.90;;
19664;SDS011;9980;51.020;7.772;2022-10-31T07:45:51;8.93;;;6.30;;
19664;SDS011;9980;51.020;7.772;2022-10-31T07:48:58;10.07;;;6.40;;
19664;SDS011;9980;51.020;7.772;2022-10-31T07:52:01;12.80;;;6.70;;
19664;SDS011;9980;51.020;7.772;2022-10-31T07:55:13;10.63;;;6.37;;
19664;SDS011;9980;51.020;7.772;2022-10-31T07:57:54;12.17;;;6.50;;
19664;SDS011;9980;51.020;7.772;2022-10-31T08:00:50;10.27;;;7.20;;
19664;SDS011;9980;51.020;7.772;2022-10-31T08:03:32;8.30;;;6.87;;
19664;SDS011;9980;51.020;7.772;2022-10-31T08:06:55;9.80;;;7.10;;
19664;SDS011;9980;51.020;7.772;2022-10-31T08:09:34;8.87;;;7.23;;
19664;SDS011;9980;51.020;7.772;2022-10-31T08:12:33;7.67;;;6.57;;
19664;SDS011;9980;51.020;7.772;2022-10-31T08:15:13;13.77;;;7.27;;
19664;SDS011;9980;51.020;7.772;2022-10-31T08:18:00;7.60;;;6.03;;
19664;SDS011;9980;51.020;7.772;2022-10-31T08:20:42;9.13;;;6.80;;
19664;SDS011;9980;51.020;7.772;2022-10-31T08:23:30;10.30;;;6.33;;
19664;SDS011;9980;51.020;7.772;2022-10-31T08:26:10;10.20;;;7.07;;
19664;SDS011;9980;51.020;7.772;2022-10-31T08:29:00;9.67;;;7.07;;
19664;SDS011;9980;51.020;7.772;2022-10-31T08:31:41;8.80;;;6.83;;
19664;SDS011;9980;51.020;7.772;2022-10-31T08:34:48;14.63;;;9.03;;
19664;SDS011;9980;51.020;7.772;2022-10-31T08:37:51;20.17;;;9.10;;
19664;SDS011;9980;51.020;7.772;2022-10-31T08:40:48;14.93;;;7.40;;
19664;SDS011;9980;51.020;7.772;2022-10-31T08:43:22;11.23;;;7.50;;
19664;SDS011;9980;51.020;7.772;2022-10-31T08:46:16;11.50;;;7.50;;
19664;SDS011;9980;51.020;7.772;2022-10-31T08:48:52;9.67;;;6.63;;
19664;SDS011;9980;51.020;7.772;2022-10-31T08:51:48;8.87;;;6.30;;
19664;SDS011;9980;51.020;7.772;2022-10-31T08:54:22;11.77;;;7.00;;
19664;SDS011;9980;51.020;7.772;2022-10-31T08:57:34;9.60;;;6.37;;
19664;SDS011;9980;51.020;7.772;2022-10-31T09:00:14;7.97;;;6.73;;
19664;SDS011;9980;51.020;7.772;2022-10-31T09:03:08;10.70;;;7.00;;
19664;SDS011;9980;51.020;7.772;2022-10-31T09:05:59;8.70;;;7.13;;
19664;SDS011;9980;51.020;7.772;2022-10-31T09:08:49;8.03;;;5.90;;
19664;SDS011;9980;51.020;7.772;2022-10-31T09:11:30;12.07;;;6.67;;
19664;SDS011;9980;51.020;7.772;2022-10-31T09:14:17;11.77;;;7.00;;
19664;SDS011;9980;51.020;7.772;2022-10-31T09:17:20;9.27;;;6.40;;
19664;SDS011;9980;51.020;7.772;2022-10-31T09:20:27;10.83;;;6.87;;
19664;SDS011;9980;51.020;7.772;2022-10-31T09:23:06;11.60;;;6.97;;
19664;SDS011;9980;51.020;7.772;2022-10-31T09:26:05;9.00;;;6.67;;
19664;SDS011;9980;51.020;7.772;2022-10-31T09:28:42;7.80;;;6.97;;
19664;SDS011;9980;51.020;7.772;2022-10-31T09:31:36;7.60;;;6.63;;
19664;SDS011;9980;51.020;7.772;2022-10-31T09:34:30;11.13;;;7.07;;
19664;SDS011;9980;51.020;7.772;2022-10-31T09:37:25;14.23;;;6.77;;
19664;SDS011;9980;51.020;7.772;2022-10-31T09:40:06;9.20;;;6.87;;
19664;SDS011;9980;51.020;7.772;2022-10-31T09:43:05;11.93;;;7.27;;
19664;SDS011;9980;51.020;7.772;2022-10-31T09:46:30;10.70;;;7.07;;
19664;SDS011;9980;51.020;7.772;2022-10-31T09:52:32;8.07;;;6.50;;
19664;SDS011;9980;51.020;7.772;2022-10-31T09:55:40;15.17;;;7.90;;
19664;SDS011;9980;51.020;7.772;2022-10-31T09:58:20;11.17;;;6.83;;
19664;SDS011;9980;51.020;7.772;2022-10-31T10:01:25;11.30;;;7.23;;
19664;SDS011;9980;51.020;7.772;2022-10-31T10:04:29;14.10;;;6.87;;
19664;SDS011;9980;51.020;7.772;2022-10-31T10:10:59;11.07;;;6.40;;
19664;SDS011;9980;51.020;7.772;2022-10-31T10:17:53;13.67;;;7.10;;
19664;SDS011;9980;51.020;7.772;2022-10-31T10:24:30;16.30;;;6.73;;
19664;SDS011;9980;51.020;7.772;2022-10-31T10:31:08;13.70;;;6.90;;
19664;SDS011;9980;51.020;7.772;2022-10-31T10:34:02;9.10;;;6.43;;
19664;SDS011;9980;51.020;7.772;2022-10-31T10:37:07;13.03;;;6.73;;
19664;SDS011;9980;51.020;7.772;2022-10-31T10:40:26;13.33;;;7.07;;
19664;SDS011;9980;51.020;7.772;2022-10-31T10:59:38;14.77;;;7.30;;
19664;SDS011;9980;51.020;7.772;2022-10-31T11:02:19;14.63;;;7.57;;
19664;SDS011;9980;51.020;7.772;2022-10-31T11:05:40;12.07;;;8.03;;
19664;SDS011;9980;51.020;7.772;2022-10-31T11:08:29;16.57;;;7.60;;
19664;SDS011;9980;51.020;7.772;2022-10-31T11:11:29;16.87;;;8.20;;
19664;SDS011;9980;51.020;7.772;2022-10-31T11:14:04;12.30;;;7.77;;
19664;SDS011;9980;51.020;7.772;2022-10-31T11:20:33;11.80;;;7.40;;
19664;SDS011;9980;51.020;7.772;2022-10-31T11:23:23;13.13;;;7.30;;
19664;SDS011;9980;51.020;7.772;2022-10-31T11:26:06;14.77;;;7.90;;
19664;SDS011;9980;51.020;7.772;2022-10-31T11:31:59;17.03;;;7.37;;
19664;SDS011;9980;51.020;7.772;2022-10-31T11:34:48;14.10;;;7.10;;
19664;SDS011;9980;51.020;7.772;2022-10-31T11:37:34;14.77;;;6.93;;
19664;SDS011;9980;51.020;7.772;2022-10-31T11:40:29;14.70;;;7.40;;
19664;SDS011;9980;51.020;7.772;2022-10-31T11:43:12;11.73;;;7.07;;
19664;SDS011;9980;51.020;7.772;2022-10-31T11:46:11;14.90;;;7.47;;
19664;SDS011;9980;51.020;7.772;2022-10-31T11:48:54;10.80;;;6.30;;
19664;SDS011;9980;51.020;7.772;2022-10-31T11:51:51;11.00;;;7.17;;
19664;SDS011;9980;51.020;7.772;2022-10-31T11:54:30;21.77;;;8.03;;
19664;SDS011;9980;51.020;7.772;2022-10-31T11:57:45;15.73;;;7.83;;
19664;SDS011;9980;51.020;7.772;2022-10-31T12:00:32;9.57;;;7.03;;
19664;SDS011;9980;51.020;7.772;2022-10-31T12:06:52;20.30;;;8.17;;
19664;SDS011;9980;51.020;7.772;2022-10-31T12:09:40;19.87;;;7.63;;
19664;SDS011;9980;51.020;7.772;2022-10-31T12:12:32;13.63;;;6.90;;
19664;SDS011;9980;51.020;7.772;2022-10-31T12:24:54;11.47;;;6.50;;
19664;SDS011;9980;51.020;7.772;2022-10-31T12:28:51;12.37;;;6.60;;
19664;SDS011;9980;51.020;7.772;2022-10-31T12:42:43;12.13;;;6.87;;
19664;SDS011;9980;51.020;7.772;2022-10-31T12:45:53;11.07;;;5.73;;
19664;SDS011;9980;51.020;7.772;2022-10-31T12:48:56;11.97;;;5.90;;
19664;SDS011;9980;51.020;7.772;2022-10-31T12:52:04;10.90;;;5.60;;
19664;SDS011;9980;51.020;7.772;2022-10-31T13:05:17;9.20;;;4.33;;
19664;SDS011;9980;51.020;7.772;2022-10-31T13:08:33;12.40;;;4.40;;
19664;SDS011;9980;51.020;7.772;2022-10-31T13:11:39;12.20;;;4.30;;
19664;SDS011;9980;51.020;7.772;2022-10-31T13:14:51;10.07;;;4.23;;
19664;SDS011;9980;51.020;7.772;2022-10-31T13:17:39;10.37;;;4.17;;
19664;SDS011;9980;51.020;7.772;2022-10-31T13:20:42;11.33;;;4.20;;
19664;SDS011;9980;51.020;7.772;2022-10-31T13:23:28;11.93;;;4.53;;
19664;SDS011;9980;51.020;7.772;2022-10-31T13:26:37;9.03;;;3.80;;
19664;SDS011;9980;51.020;7.772;2022-10-31T13:29:42;8.80;;;4.53;;
19664;SDS011;9980;51.020;7.772;2022-10-31T13:33:09;8.07;;;3.70;;
19664;SDS011;9980;51.020;7.772;2022-10-31T13:36:19;8.43;;;3.47;;
19664;SDS011;9980;51.020;7.772;2022-10-31T13:45:53;8.80;;;4.77;;
19664;SDS011;9980;51.020;7.772;2022-10-31T13:48:42;6.87;;;4.10;;
19664;SDS011;9980;51.020;7.772;2022-10-31T13:51:32;6.53;;;3.77;;
19664;SDS011;9980;51.020;7.772;2022-10-31T13:54:34;9.27;;;4.17;;
19664;SDS011;9980;51.020;7.772;2022-10-31T13:57:21;14.70;;;4.17;;
19664;SDS011;9980;51.020;7.772;2022-10-31T14:00:33;10.47;;;4.50;;
19664;SDS011;9980;51.020;7.772;2022-10-31T14:03:16;7.97;;;3.87;;
19664;SDS011;9980;51.020;7.772;2022-10-31T14:06:36;13.27;;;4.50;;
19664;SDS011;9980;51.020;7.772;2022-10-31T14:15:26;8.77;;;4.30;;
19664;SDS011;9980;51.020;7.772;2022-10-31T14:18:48;9.67;;;3.70;;
19664;SDS011;9980;51.020;7.772;2022-10-31T14:21:28;8.47;;;3.93;;
19664;SDS011;9980;51.020;7.772;2022-10-31T14:24:32;10.23;;;4.70;;
19664;SDS011;9980;51.020;7.772;2022-10-31T14:30:21;10.73;;;4.37;;
19664;SDS011;9980;51.020;7.772;2022-10-31T14:33:09;12.63;;;4.27;;
19664;SDS011;9980;51.020;7.772;2022-10-31T14:36:17;7.60;;;3.87;;
19664;SDS011;9980;51.020;7.772;2022-10-31T14:39:16;10.83;;;3.93;;
19664;SDS011;9980;51.020;7.772;2022-10-31T14:42:27;5.80;;;2.83;;
19664;SDS011;9980;51.020;7.772;2022-10-31T14:46:02;10.03;;;3.70;;
19664;SDS011;9980;51.020;7.772;2022-10-31T14:52:28;7.87;;;3.93;;
19664;SDS011;9980;51.020;7.772;2022-10-31T14:55:53;13.00;;;3.80;;
19664;SDS011;9980;51.020;7.772;2022-10-31T14:58:31;9.60;;;4.10;;
19664;SDS011;9980;51.020;7.772;2022-10-31T15:01:36;16.23;;;3.63;;
19664;SDS011;9980;51.020;7.772;2022-10-31T15:04:27;10.07;;;3.80;;
19664;SDS011;9980;51.020;7.772;2022-10-31T15:07:25;7.53;;;3.50;;
19664;SDS011;9980;51.020;7.772;2022-10-31T15:10:29;5.53;;;3.10;;
19664;SDS011;9980;51.020;7.772;2022-10-31T15:13:20;7.10;;;4.20;;
19664;SDS011;9980;51.020;7.772;2022-10-31T15:16:01;8.67;;;3.67;;
19664;SDS011;9980;51.020;7.772;2022-10-31T15:18:50;5.83;;;3.30;;
19664;SDS011;9980;51.020;7.772;2022-10-31T15:21:50;6.57;;;3.73;;
19664;SDS011;9980;51.020;7.772;2022-10-31T15:24:48;8.83;;;3.20;;
19664;SDS011;9980;51.020;7.772;2022-10-31T15:27:28;10.83;;;3.33;;
19664;SDS011;9980;51.020;7.772;2022-10-31T15:30:23;9.07;;;3.87;;
19664;SDS011;9980;51.020;7.772;2022-10-31T15:32:59;10.07;;;4.37;;
19664;SDS011;9980;51.020;7.772;2022-10-31T15:35:57;13.30;;;3.87;;
19664;SDS011;9980;51.020;7.772;2022-10-31T15:38:40;15.10;;;3.93;;
19664;SDS011;9980;51.020;7.772;2022-10-31T15:41:29;14.50;;;4.10;;
19664;SDS011;9980;51.020;7.772;2022-10-31T15:44:19;14.57;;;4.80;;
19664;SDS011;9980;51.020;7.772;2022-10-31T15:47:18;11.80;;;4.27;;
19664;SDS011;9980;51.020;7.772;2022-10-31T15:50:23;16.07;;;5.23;;
19664;SDS011;9980;51.020;7.772;2022-10-31T15:53:41;10.13;;;4.93;;
19664;SDS011;9980;51.020;7.772;2022-10-31T15:56:47;19.03;;;5.37;;
19664;SDS011;9980;51.020;7.772;2022-10-31T15:59:27;10.27;;;5.27;;
19664;SDS011;9980;51.020;7.772;2022-10-31T16:02:25;17.27;;;5.80;;
19664;SDS011;9980;51.020;7.772;2022-10-31T16:05:16;17.17;;;4.30;;
19664;SDS011;9980;51.020;7.772;2022-10-31T16:08:21;17.33;;;5.43;;
19664;SDS011;9980;51.020;7.772;2022-10-31T16:16:57;9.20;;;4.30;;
19664;SDS011;9980;51.020;7.772;2022-10-31T16:19:58;11.27;;;3.90;;
19664;SDS011;9980;51.020;7.772;2022-10-31T16:22:37;17.43;;;4.50;;
19664;SDS011;9980;51.020;7.772;2022-10-31T16:25:36;10.60;;;3.90;;
19664;SDS011;9980;51.020;7.772;2022-10-31T16:28:18;9.57;;;3.93;;
19664;SDS011;9980;51.020;7.772;2022-10-31T16:31:30;13.60;;;4.07;;
19664;SDS011;9980;51.020;7.772;2022-10-31T16:34:31;15.43;;;4.43;;
19664;SDS011;9980;51.020;7.772;2022-10-31T16:37:04;7.03;;;3.37;;
19664;SDS011;9980;51.020;7.772;2022-10-31T16:39:58;11.83;;;3.80;;
19664;SDS011;9980;51.020;7.772;2022-10-31T16:42:32;7.37;;;4.10;;
19664;SDS011;9980;51.020;7.772;2022-10-31T16:45:27;10.83;;;4.27;;
19664;SDS011;9980;51.020;7.772;2022-10-31T16:48:09;19.93;;;4.37;;
19664;SDS011;9980;51.020;7.772;2022-10-31T16:51:09;11.07;;;3.90;;
19664;SDS011;9980;51.020;7.772;2022-10-31T16:53:42;7.10;;;4.10;;
19664;SDS011;9980;51.020;7.772;2022-10-31T16:56:36;6.90;;;4.00;;
19664;SDS011;9980;51.020;7.772;2022-10-31T16:59:17;7.27;;;3.63;;
19664;SDS011;9980;51.020;7.772;2022-10-31T17:02:05;10.77;;;4.77;;
19664;SDS011;9980;51.020;7.772;2022-10-31T17:04:55;11.50;;;6.07;;
19664;SDS011;9980;51.020;7.772;2022-10-31T17:07:42;15.40;;;6.77;;
19664;SDS011;9980;51.020;7.772;2022-10-31T17:10:22;13.80;;;7.93;;
19664;SDS011;9980;51.020;7.772;2022-10-31T17:13:15;12.30;;;7.70;;
19664;SDS011;9980;51.020;7.772;2022-10-31T17:16:02;21.83;;;9.53;;
19664;SDS011;9980;51.020;7.772;2022-10-31T17:18:49;18.70;;;8.80;;
19664;SDS011;9980;51.020;7.772;2022-10-31T17:21:29;15.63;;;8.27;;
19664;SDS011;9980;51.020;7.772;2022-10-31T17:24:24;8.33;;;5.80;;
19664;SDS011;9980;51.020;7.772;2022-10-31T17:27:04;13.50;;;8.37;;
19664;SDS011;9980;51.020;7.772;2022-10-31T17:29:59;17.17;;;9.10;;
19664;SDS011;9980;51.020;7.772;2022-10-31T17:32:32;17.53;;;9.03;;
19664;SDS011;9980;51.020;7.772;2022-10-31T17:35:26;17.63;;;8.90;;
19664;SDS011;9980;51.020;7.772;2022-10-31T17:37:59;13.77;;;8.67;;
19664;SDS011;9980;51.020;7.772;2022-10-31T17:40:53;9.60;;;6.33;;
19664;SDS011;9980;51.020;7.772;2022-10-31T17:43:35;11.40;;;6.80;;
19664;SDS011;9980;51.020;7.772;2022-10-31T17:46:29;9.17;;;4.80;;
19664;SDS011;9980;51.020;7.772;2022-10-31T17:49:10;9.97;;;5.73;;
19664;SDS011;9980;51.020;7.772;2022-10-31T17:51:57;10.23;;;5.63;;
19664;SDS011;9980;51.020;7.772;2022-10-31T17:54:37;15.27;;;8.33;;
19664;SDS011;9980;51.020;7.772;2022-10-31T17:57:24;10.73;;;7.13;;
19664;SDS011;9980;51.020;7.772;2022-10-31T18:00:05;12.33;;;8.27;;
19664;SDS011;9980;51.020;7.772;2022-10-31T18:02:56;13.57;;;5.87;;
19664;SDS011;9980;51.020;7.772;2022-10-31T18:05:36;8.83;;;5.50;;
19664;SDS011;9980;51.020;7.772;2022-10-31T18:08:27;13.53;;;7.53;;
19664;SDS011;9980;51.020;7.772;2022-10-31T18:11:15;12.43;;;6.70;;
19664;SDS011;9980;51.020;7.772;2022-10-31T18:14:13;14.10;;;7.40;;
19664;SDS011;9980;51.020;7.772;2022-10-31T18:16:46;8.77;;;5.37;;
19664;SDS011;9980;51.020;7.772;2022-10-31T18:19:40;20.73;;;10.37;;
19664;SDS011;9980;51.020;7.772;2022-10-31T18:22:20;11.57;;;5.53;;
19664;SDS011;9980;51.020;7.772;2022-10-31T18:25:14;15.43;;;6.53;;
19664;SDS011;9980;51.020;7.772;2022-10-31T18:27:47;14.70;;;6.47;;
19664;SDS011;9980;51.020;7.772;2022-10-31T18:30:41;8.40;;;5.63;;
19664;SDS011;9980;51.020;7.772;2022-10-31T18:33:15;11.33;;;5.37;;
19664;SDS011;9980;51.020;7.772;2022-10-31T18:36:09;9.00;;;5.10;;
19664;SDS011;9980;51.020;7.772;2022-10-31T18:38:43;20.70;;;6.87;;
19664;SDS011;9980;51.020;7.772;2022-10-31T18:41:38;14.33;;;8.03;;
19664;SDS011;9980;51.020;7.772;2022-10-31T18:44:18;18.47;;;6.53;;
19664;SDS011;9980;51.020;7.772;2022-10-31T18:47:06;14.73;;;7.50;;
19664;SDS011;9980;51.020;7.772;2022-10-31T18:49:46;19.67;;;7.13;;
19664;SDS011;9980;51.020;7.772;2022-10-31T18:52:33;8.33;;;6.43;;
19664;SDS011;9980;51.020;7.772;2022-10-31T18:55:13;10.73;;;6.50;;
19664;SDS011;9980;51.020;7.772;2022-10-31T18:58:00;7.83;;;5.20;;
19664;SDS011;9980;51.020;7.772;2022-10-31T19:00:40;9.03;;;6.40;;
19664;SDS011;9980;51.020;7.772;2022-10-31T19:03:27;15.53;;;8.23;;
19664;SDS011;9980;51.020;7.772;2022-10-31T19:06:08;9.13;;;5.93;;
19664;SDS011;9980;51.020;7.772;2022-10-31T19:09:04;12.00;;;6.60;;
19664;SDS011;9980;51.020;7.772;2022-10-31T19:11:40;10.87;;;7.13;;
19664;SDS011;9980;51.020;7.772;2022-10-31T19:14:34;15.53;;;7.47;;
19664;SDS011;9980;51.020;7.772;2022-10-31T19:17:07;9.23;;;7.07;;
19664;SDS011;9980;51.020;7.772;2022-10-31T19:20:02;9.73;;;7.17;;
19664;SDS011;9980;51.020;7.772;2022-10-31T19:22:35;14.80;;;7.07;;
19664;SDS011;9980;51.020;7.772;2022-10-31T19:25:29;11.40;;;6.57;;
19664;SDS011;9980;51.020;7.772;2022-10-31T19:28:02;15.00;;;6.57;;